Oerle, Netherlands
Current Conditions -  °F | °C
As of 1:26 AM on Saturday 25 Oct 2014 (Local Time) from EHEH Reporting Station
Haze Haze  
Wind Chill: 52°   Ceiling: 500
Heat Index: 52°   Visibility: 4mi
Dew Point: 50°   Wind: 8mph
Humidity: 94%   Direction: 190°S
Pressure: 30"   Gusts: NA
Location:  51.42°N, 5.37°E
Report Text: EHEH 242326Z AUTO 19007KT 7000 BR FEW004 BKN005 OVC007 11/10 Q1016 YLO
Loading
Personal Weather Stations






























Interactive Weather Map
Tropical Storm Tracking
New forecast layout! Learn more

10-Day Weather Forecast

Advertisements
Track Severe Weather on mobile